createdAt,value
2018-04-23T00:01:01.119Z,91.8
2018-04-23T00:02:03.568Z,91.8
2018-04-23T00:03:05.960Z,92.1
2018-04-23T00:04:07.614Z,92.1
2018-04-23T00:05:09.196Z,91.5
2018-04-23T00:06:11.341Z,91.7
2018-04-23T00:07:14.009Z,92.5
2018-04-23T00:08:15.698Z,92.3
2018-04-23T00:09:17.380Z,92.2
2018-04-23T00:10:19.669Z,92.1
2018-04-23T00:11:22.313Z,92.5
2018-04-23T00:12:25.075Z,91.4
2018-04-23T00:13:26.768Z,91.4
2018-04-23T00:14:29.867Z,91.6
2018-04-23T00:15:32.593Z,91.6
2018-04-23T00:16:34.244Z,92.0
2018-04-23T00:17:36.633Z,91.8
2018-04-23T00:18:38.338Z,91.8
2018-04-23T00:19:40.149Z,91.9
2018-04-23T00:20:41.784Z,92.1
2018-04-23T00:21:43.548Z,92.1
2018-04-23T00:22:45.305Z,91.9
2018-04-23T00:23:47.648Z,91.6
2018-04-23T00:24:49.343Z,92.3
2018-04-23T00:25:51.076Z,92.6
2018-04-23T00:26:52.807Z,92.6
2018-04-23T00:27:54.437Z,93.5
2018-04-23T00:28:56.414Z,94.0
2018-04-23T00:29:57.852Z,94.2
2018-04-23T00:30:59.324Z,95.2
2018-04-23T00:32:01.054Z,95.0
2018-04-23T00:33:02.677Z,95.2
2018-04-23T00:34:04.443Z,95.1
2018-04-23T00:35:06.649Z,94.7
2018-04-23T00:36:09.136Z,94.8
2018-04-23T00:37:10.752Z,95.0
2018-04-23T00:38:12.564Z,94.5
2018-04-23T00:39:14.756Z,94.4
2018-04-23T00:40:17.659Z,94.5
2018-04-23T00:41:19.835Z,94.4
2018-04-23T00:42:21.566Z,94.3
2018-04-23T00:43:24.506Z,94.4
2018-04-23T00:44:26.621Z,93.7
2018-04-23T00:45:28.361Z,93.8
2018-04-23T00:46:30.117Z,93.6
2018-04-23T00:47:31.835Z,93.5
2018-04-23T00:48:33.604Z,93.5
2018-04-23T00:49:35.238Z,92.5
2018-04-23T00:50:36.830Z,92.9
2018-04-23T00:51:38.583Z,92.5
2018-04-23T00:52:40.232Z,92.0
2018-04-23T00:53:41.868Z,92.0
2018-04-23T00:54:43.668Z,91.8
2018-04-23T00:55:45.448Z,92.3
2018-04-23T00:56:47.563Z,97.0
2018-04-23T00:57:49.827Z,100.0
2018-04-23T00:58:52.367Z,100.0
2018-04-23T00:59:55.241Z,100.0
2018-04-23T01:00:57.957Z,100.0
2018-04-23T01:02:02.759Z,100.0
2018-04-23T01:03:05.955Z,100.0
2018-04-23T01:04:08.107Z,100.0
2018-04-23T01:05:13.396Z,100.0
2018-04-23T01:06:15.612Z,100.0
2018-04-23T01:07:17.641Z,100.0
2018-04-23T01:08:19.702Z,100.0
2018-04-23T01:09:22.380Z,100.0
2018-04-23T01:10:25.395Z,100.0
2018-04-23T01:11:27.265Z,100.0
2018-04-23T01:12:29.493Z,100.0
2018-04-23T01:13:31.364Z,100.0
2018-04-23T01:14:36.819Z,100.0
2018-04-23T01:15:38.820Z,100.0
2018-04-23T01:16:40.991Z,100.0
2018-04-23T01:17:43.044Z,100.0
2018-04-23T01:18:46.291Z,100.0
2018-04-23T01:19:49.681Z,100.0
2018-04-23T01:20:56.558Z,100.0
2018-04-23T01:21:59.683Z,100.0
2018-04-23T01:23:01.919Z,100.0
2018-04-23T01:24:06.393Z,100.0
2018-04-23T01:25:08.691Z,100.0
2018-04-23T01:26:12.174Z,100.0
2018-04-23T01:27:14.254Z,100.0
2018-04-23T01:28:16.260Z,100.0
2018-04-23T01:29:18.594Z,100.0
2018-04-23T01:30:20.967Z,100.0
2018-04-23T01:31:23.188Z,100.0
2018-04-23T01:32:25.350Z,100.0
2018-04-23T01:33:27.489Z,100.0
2018-04-23T01:34:29.847Z,100.0
2018-04-23T01:35:31.994Z,100.0
2018-04-23T01:36:34.134Z,100.0
2018-04-23T01:37:36.159Z,100.0
2018-04-23T01:38:38.405Z,100.0
2018-04-23T01:39:40.549Z,100.0
2018-04-23T01:40:42.799Z,100.0
2018-04-23T01:41:45.741Z,100.0
2018-04-23T01:42:48.615Z,100.0
2018-04-23T01:43:51.046Z,100.0
2018-04-23T01:44:53.022Z,100.0
2018-04-23T01:45:55.257Z,100.0
2018-04-23T01:46:57.434Z,100.0
2018-04-23T01:47:59.729Z,100.0
2018-04-23T01:49:01.948Z,100.0
2018-04-23T01:50:04.162Z,100.0
2018-04-23T01:51:06.323Z,100.0
2018-04-23T01:52:08.467Z,100.0
2018-04-23T01:53:10.738Z,100.0
2018-04-23T01:54:12.872Z,100.0
2018-04-23T01:55:15.046Z,100.0
2018-04-23T01:56:17.825Z,100.0
2018-04-23T01:57:20.030Z,100.0
2018-04-23T01:58:22.332Z,100.0
2018-04-23T01:59:24.431Z,100.0
2018-04-23T02:00:26.796Z,100.0
2018-04-23T02:01:28.968Z,100.0
2018-04-23T02:02:31.624Z,100.0
2018-04-23T02:03:33.728Z,100.0
2018-04-23T02:04:35.818Z,100.0
2018-04-23T02:05:38.309Z,100.0
2018-04-23T02:06:40.350Z,100.0
2018-04-23T02:07:42.559Z,100.0
2018-04-23T02:08:44.725Z,100.0
2018-04-23T02:09:46.858Z,100.0
2018-04-23T02:10:48.929Z,100.0
2018-04-23T02:11:51.036Z,100.0
2018-04-23T02:12:53.318Z,100.0
2018-04-23T02:13:55.182Z,100.0
2018-04-23T02:14:57.254Z,100.0
2018-04-23T02:15:59.346Z,100.0
2018-04-23T02:17:01.507Z,100.0
2018-04-23T02:18:03.672Z,100.0
2018-04-23T02:19:05.887Z,100.0
2018-04-23T02:20:08.185Z,100.0
2018-04-23T02:21:10.624Z,100.0
2018-04-23T02:22:12.662Z,100.0
2018-04-23T02:23:14.744Z,100.0
2018-04-23T02:24:17.033Z,100.0
2018-04-23T02:25:18.995Z,100.0
2018-04-23T02:26:21.156Z,100.0
2018-04-23T02:27:23.267Z,100.0
2018-04-23T02:28:25.599Z,100.0
2018-04-23T02:29:27.634Z,100.0
2018-04-23T02:30:29.712Z,100.0
2018-04-23T02:31:31.942Z,100.0
2018-04-23T02:32:34.038Z,100.0
2018-04-23T02:33:36.222Z,100.0
2018-04-23T02:34:38.251Z,100.0
2018-04-23T02:35:40.401Z,100.0
2018-04-23T02:36:42.595Z,100.0
2018-04-23T02:37:44.786Z,100.0
2018-04-23T02:38:46.657Z,100.0
2018-04-23T02:39:48.535Z,100.0
2018-04-23T02:40:50.386Z,100.0
2018-04-23T02:41:52.478Z,100.0
2018-04-23T02:42:54.507Z,100.0
2018-04-23T02:43:56.792Z,100.0
2018-04-23T02:44:58.823Z,100.0
2018-04-23T02:46:01.229Z,100.0
2018-04-23T02:47:03.040Z,100.0
2018-04-23T02:48:05.339Z,100.0
2018-04-23T02:49:07.520Z,100.0
2018-04-23T02:50:09.302Z,100.0
2018-04-23T02:51:11.137Z,100.0
2018-04-23T02:52:13.677Z,100.0
2018-04-23T02:53:15.541Z,100.0
2018-04-23T02:54:17.483Z,100.0
2018-04-23T02:55:19.843Z,100.0
2018-04-23T02:56:22.115Z,100.0
2018-04-23T02:57:23.934Z,100.0
2018-04-23T02:58:26.309Z,100.0
2018-04-23T02:59:28.047Z,100.0
2018-04-23T03:00:30.577Z,100.0
2018-04-23T03:01:32.775Z,100.0
2018-04-23T03:02:34.520Z,100.0
2018-04-23T03:03:36.412Z,100.0
2018-04-23T03:04:38.170Z,100.0
2018-04-23T03:05:39.918Z,100.0
2018-04-23T03:06:41.655Z,100.0
2018-04-23T03:07:43.926Z,100.0
2018-04-23T03:08:46.837Z,100.0
2018-04-23T03:09:48.780Z,100.0
2018-04-23T03:10:50.716Z,100.0
2018-04-23T03:11:52.473Z,100.0
2018-04-23T03:12:55.029Z,100.0
2018-04-23T03:13:56.904Z,100.0
2018-04-23T03:14:59.136Z,100.0
2018-04-23T03:16:01.130Z,100.0
2018-04-23T03:17:03.036Z,100.0
2018-04-23T03:18:04.938Z,100.0
2018-04-23T03:19:07.423Z,100.0
2018-04-23T03:20:09.719Z,100.0
2018-04-23T03:21:12.055Z,100.0
2018-04-23T03:22:14.433Z,100.0
2018-04-23T03:23:16.639Z,100.0
2018-04-23T03:24:18.459Z,100.0
2018-04-23T03:25:21.006Z,100.0
2018-04-23T03:26:23.385Z,100.0
2018-04-23T03:27:25.683Z,100.0
2018-04-23T03:28:28.021Z,100.0
2018-04-23T03:29:29.800Z,100.0
2018-04-23T03:30:31.532Z,100.0
2018-04-23T03:31:33.313Z,100.0
2018-04-23T03:32:35.048Z,100.0
2018-04-23T03:33:36.795Z,100.0
2018-04-23T03:34:38.515Z,100.0
2018-04-23T03:35:40.352Z,100.0
2018-04-23T03:36:42.103Z,100.0
2018-04-23T03:37:44.528Z,100.0
2018-04-23T03:38:46.971Z,100.0
2018-04-23T03:39:49.289Z,100.0
2018-04-23T03:40:50.978Z,100.0
2018-04-23T03:41:52.767Z,100.0
2018-04-23T03:42:55.138Z,100.0
2018-04-23T03:43:56.956Z,100.0
2018-04-23T03:44:58.703Z,100.0
2018-04-23T03:46:00.970Z,100.0
2018-04-23T03:47:02.753Z,100.0
2018-04-23T03:48:04.476Z,100.0
2018-04-23T03:49:06.192Z,100.0
2018-04-23T03:50:08.641Z,100.0
2018-04-23T03:51:10.367Z,100.0
2018-04-23T03:52:12.136Z,100.0
2018-04-23T03:53:14.431Z,100.0
2018-04-23T03:54:16.115Z,100.0
2018-04-23T03:55:17.862Z,100.0
2018-04-23T03:56:20.245Z,100.0
2018-04-23T03:57:22.514Z,100.0
2018-04-23T03:58:24.212Z,100.0
2018-04-23T03:59:26.524Z,100.0
2018-04-23T04:00:28.794Z,100.0
2018-04-23T04:01:30.468Z,100.0
2018-04-23T04:02:32.742Z,100.0
2018-04-23T04:03:34.928Z,100.0
2018-04-23T04:04:36.948Z,100.0
2018-04-23T04:05:39.169Z,100.0
2018-04-23T04:06:41.422Z,100.0
2018-04-23T04:07:43.567Z,100.0
2018-04-23T04:08:45.365Z,100.0
2018-04-23T04:09:47.130Z,100.0
2018-04-23T04:10:48.780Z,100.0
2018-04-23T04:11:51.097Z,100.0
2018-04-23T04:12:52.878Z,100.0
2018-04-23T04:13:54.563Z,100.0
2018-04-23T04:14:56.192Z,100.0
2018-04-23T04:15:57.963Z,100.0
2018-04-23T04:17:00.280Z,100.0
2018-04-23T04:18:02.002Z,100.0
2018-04-23T04:19:03.818Z,100.0
2018-04-23T04:20:05.575Z,100.0
2018-04-23T04:21:07.714Z,100.0
2018-04-23T04:22:09.500Z,100.0
2018-04-23T04:23:11.215Z,100.0
2018-04-23T04:24:12.983Z,100.0
2018-04-23T04:25:15.335Z,100.0
2018-04-23T04:26:17.024Z,100.0
2018-04-23T04:27:18.751Z,100.0
2018-04-23T04:28:20.529Z,100.0
2018-04-23T04:29:22.986Z,100.0
2018-04-23T04:30:24.686Z,100.0
2018-04-23T04:31:27.070Z,100.0
2018-04-23T04:32:29.216Z,100.0
2018-04-23T04:33:31.434Z,100.0
2018-04-23T04:34:33.108Z,100.0
2018-04-23T04:35:34.889Z,100.0
2018-04-23T04:36:36.528Z,100.0
2018-04-23T04:37:38.216Z,100.0
2018-04-23T04:38:39.968Z,100.0
2018-04-23T04:39:41.658Z,100.0
2018-04-23T04:40:43.329Z,100.0
2018-04-23T04:41:45.320Z,100.0
2018-04-23T04:42:47.040Z,100.0
2018-04-23T04:43:48.748Z,100.0
2018-04-23T04:44:51.578Z,100.0
2018-04-23T04:45:53.260Z,100.0
2018-04-23T04:46:55.542Z,100.0
2018-04-23T04:47:57.297Z,100.0
2018-04-23T04:48:59.523Z,100.0
2018-04-23T04:50:01.205Z,100.0
2018-04-23T04:51:03.234Z,100.0
2018-04-23T04:52:04.914Z,100.0
2018-04-23T04:53:07.214Z,100.0
2018-04-23T04:54:09.403Z,100.0
2018-04-23T04:55:11.139Z,100.0
2018-04-23T04:56:13.295Z,100.0
2018-04-23T04:57:15.673Z,100.0
2018-04-23T04:58:17.450Z,100.0
2018-04-23T04:59:19.239Z,100.0
2018-04-23T05:00:21.425Z,100.0
2018-04-23T05:01:23.142Z,100.0
2018-04-23T05:02:24.907Z,100.0
2018-04-23T05:03:26.580Z,100.0
2018-04-23T05:04:28.625Z,100.0
2018-04-23T05:05:30.684Z,100.0
2018-04-23T05:06:32.465Z,100.0
2018-04-23T05:07:34.220Z,100.0
2018-04-23T05:08:37.222Z,100.0
2018-04-23T05:09:38.946Z,100.0
2018-04-23T05:10:40.668Z,100.0
2018-04-23T05:11:42.448Z,100.0
2018-04-23T05:12:44.527Z,100.0
2018-04-23T05:13:46.445Z,100.0
2018-04-23T05:14:48.127Z,100.0
2018-04-23T05:15:49.878Z,100.0
2018-04-23T05:16:51.664Z,100.0
2018-04-23T05:17:53.977Z,100.0
2018-04-23T05:18:55.752Z,100.0
2018-04-23T05:19:57.512Z,100.0
2018-04-23T05:20:59.211Z,100.0
2018-04-23T05:22:01.135Z,100.0
2018-04-23T05:23:03.038Z,100.0
2018-04-23T05:24:04.700Z,100.0
2018-04-23T05:25:06.473Z,100.0
2018-04-23T05:26:08.729Z,100.0
2018-04-23T05:27:10.420Z,100.0
2018-04-23T05:28:12.764Z,100.0
2018-04-23T05:29:14.875Z,100.0
2018-04-23T05:30:17.430Z,100.0
2018-04-23T05:31:19.856Z,100.0
2018-04-23T05:32:21.559Z,100.0
2018-04-23T05:33:23.258Z,100.0
2018-04-23T05:34:25.840Z,100.0
2018-04-23T05:35:27.613Z,100.0
2018-04-23T05:36:29.420Z,100.0
2018-04-23T05:37:31.187Z,100.0
2018-04-23T05:38:32.871Z,100.0
2018-04-23T05:39:34.488Z,100.0
2018-04-23T05:40:36.209Z,100.0
2018-04-23T05:41:37.951Z,100.0
2018-04-23T05:42:39.757Z,100.0
2018-04-23T05:43:41.455Z,100.0
2018-04-23T05:44:43.098Z,100.0
2018-04-23T05:45:44.819Z,100.0
2018-04-23T05:46:46.569Z,100.0
2018-04-23T05:47:48.942Z,100.0
2018-04-23T05:48:51.315Z,100.0
2018-04-23T05:49:53.011Z,100.0
2018-04-23T05:50:55.493Z,100.0
2018-04-23T05:51:57.950Z,100.0
2018-04-23T05:53:00.466Z,100.0
2018-04-23T05:54:02.220Z,100.0
2018-04-23T05:55:03.970Z,100.0
2018-04-23T05:56:05.693Z,100.0
2018-04-23T05:57:07.453Z,100.0
2018-04-23T05:58:09.179Z,100.0
2018-04-23T05:59:10.974Z,100.0
2018-04-23T06:00:13.105Z,100.0
2018-04-23T06:01:14.781Z,100.0
2018-04-23T06:02:16.488Z,100.0
2018-04-23T06:03:18.188Z,100.0
2018-04-23T06:04:19.899Z,100.0
2018-04-23T06:05:22.265Z,100.0
2018-04-23T06:06:23.921Z,100.0
2018-04-23T06:07:25.708Z,100.0
2018-04-23T06:08:27.536Z,100.0
2018-04-23T06:09:29.186Z,100.0
2018-04-23T06:10:31.496Z,99.8
2018-04-23T06:11:33.772Z,100.0
2018-04-23T06:12:35.303Z,100.0
2018-04-23T06:13:37.021Z,99.5
2018-04-23T06:14:39.283Z,99.3
2018-04-23T06:15:41.027Z,98.8
2018-04-23T06:16:42.689Z,99.5
2018-04-23T06:17:44.471Z,99.3
2018-04-23T06:18:46.909Z,100.0
2018-04-23T06:19:48.629Z,98.6
2018-04-23T06:20:50.748Z,98.7
2018-04-23T06:21:53.341Z,98.0
2018-04-23T06:22:55.059Z,97.4
2018-04-23T06:23:57.847Z,95.5
2018-04-23T06:24:59.579Z,95.5
2018-04-23T06:26:01.356Z,96.0
2018-04-23T06:27:03.172Z,95.1
2018-04-23T06:28:04.859Z,95.5
2018-04-23T06:29:06.570Z,93.6
2018-04-23T06:30:09.152Z,94.4
2018-04-23T06:31:11.030Z,94.4
2018-04-23T06:32:12.663Z,93.9
2018-04-23T06:33:14.363Z,92.8
2018-04-23T06:34:16.104Z,91.8
2018-04-23T06:35:18.114Z,89.1
2018-04-23T06:36:20.719Z,87.3
2018-04-23T06:37:23.147Z,87.0
2018-04-23T06:38:24.896Z,87.2
2018-04-23T06:39:26.851Z,87.3
2018-04-23T06:40:28.546Z,85.9
2018-04-23T06:41:30.033Z,83.6
2018-04-23T06:42:31.456Z,82.5
2018-04-23T06:43:33.835Z,80.9
2018-04-23T06:44:35.628Z,81.6
2018-04-23T06:45:38.191Z,81.8
2018-04-23T06:46:40.146Z,82.2
2018-04-23T06:47:42.012Z,82.9
2018-04-23T06:48:44.690Z,82.9
2018-04-23T06:49:46.357Z,82.5
2018-04-23T06:50:48.091Z,82.9
2018-04-23T06:51:50.822Z,81.8
2018-04-23T06:52:52.560Z,80.3
2018-04-23T06:53:54.296Z,81.2
2018-04-23T06:54:56.600Z,81.1
2018-04-23T06:55:58.315Z,79.9
2018-04-23T06:57:00.099Z,80.3
2018-04-23T06:58:02.639Z,80.1
2018-04-23T06:59:04.526Z,80.0
2018-04-23T07:00:06.369Z,81.6
2018-04-23T07:01:08.638Z,81.5
2018-04-23T07:02:10.354Z,82.0
2018-04-23T07:03:12.037Z,80.6
2018-04-23T07:04:13.837Z,81.2
2018-04-23T07:05:15.508Z,80.7
2018-04-23T07:06:17.114Z,81.1
2018-04-23T07:07:18.586Z,80.6
2018-04-23T07:08:20.074Z,79.6
2018-04-23T07:09:21.547Z,81.4
2018-04-23T07:10:23.163Z,81.3
2018-04-23T07:11:24.975Z,80.7
2018-04-23T07:12:27.345Z,80.3
2018-04-23T07:13:29.017Z,80.1
2018-04-23T07:14:30.752Z,80.2
2018-04-23T07:15:32.560Z,77.5
2018-04-23T07:16:34.276Z,79.0
2018-04-23T07:17:36.129Z,77.5
2018-04-23T07:18:37.825Z,79.4
2018-04-23T07:19:39.588Z,78.3
2018-04-23T07:20:41.317Z,76.6
2018-04-23T07:21:43.022Z,76.6
2018-04-23T07:22:44.756Z,74.8
2018-04-23T07:23:46.434Z,75.9
2018-04-23T07:24:48.134Z,76.5
2018-04-23T07:25:49.975Z,75.4
2018-04-23T07:26:51.667Z,75.0
2018-04-23T07:27:53.476Z,74.3
2018-04-23T07:28:55.254Z,73.8
2018-04-23T07:29:56.815Z,75.6
2018-04-23T07:30:58.543Z,74.7
2018-04-23T07:32:00.244Z,74.0
2018-04-23T07:33:01.927Z,73.1
2018-04-23T07:34:03.660Z,72.7
2018-04-23T07:35:05.397Z,74.0
2018-04-23T07:36:07.090Z,72.3
2018-04-23T07:37:08.603Z,72.4
2018-04-23T07:38:10.339Z,74.1
2018-04-23T07:39:12.026Z,72.3
2018-04-23T07:40:13.662Z,72.7
2018-04-23T07:41:15.328Z,72.4
2018-04-23T07:42:17.054Z,73.1
2018-04-23T07:43:18.484Z,72.5
2018-04-23T07:44:19.956Z,73.8
2018-04-23T07:45:21.611Z,72.5
2018-04-23T07:46:23.367Z,72.0
2018-04-23T07:47:25.541Z,73.0
2018-04-23T07:48:27.732Z,73.1
2018-04-23T07:49:29.923Z,74.1
2018-04-23T07:50:31.624Z,72.6
2018-04-23T07:51:33.350Z,72.4
2018-04-23T07:52:34.830Z,72.4
2018-04-23T07:53:36.322Z,73.6
2018-04-23T07:54:37.868Z,73.6
2018-04-23T07:55:39.379Z,74.1
2018-04-23T07:56:40.905Z,72.5
2018-04-23T07:57:42.418Z,71.1
2018-04-23T07:58:43.875Z,71.9
2018-04-23T07:59:45.385Z,71.7
2018-04-23T08:00:46.876Z,71.2
2018-04-23T08:01:48.407Z,71.1
2018-04-23T08:02:49.907Z,70.7
2018-04-23T08:03:51.368Z,71.2
2018-04-23T08:04:52.881Z,70.5
2018-04-23T08:05:54.351Z,70.3
2018-04-23T08:06:55.879Z,67.7
2018-04-23T08:07:57.315Z,66.6
2018-04-23T08:08:58.769Z,67.5
2018-04-23T08:10:00.204Z,67.3
2018-04-23T08:11:01.728Z,67.6
2018-04-23T08:12:03.199Z,67.4
2018-04-23T08:13:04.650Z,67.4
2018-04-23T08:14:06.098Z,67.4
2018-04-23T08:15:07.725Z,67.4
2018-04-23T08:16:09.369Z,66.4
2018-04-23T08:17:11.104Z,65.1
2018-04-23T08:18:12.897Z,62.2
2018-04-23T08:19:14.396Z,63.6
2018-04-23T08:20:15.956Z,63.0
2018-04-23T08:21:17.414Z,63.5
2018-04-23T08:22:18.965Z,64.7
2018-04-23T08:23:20.368Z,64.0
2018-04-23T08:24:21.807Z,64.4
2018-04-23T08:25:23.265Z,64.2
2018-04-23T08:26:24.678Z,62.7
2018-04-23T08:27:26.154Z,62.9
2018-04-23T08:28:27.549Z,62.1
2018-04-23T08:29:29.141Z,62.3
2018-04-23T08:30:30.562Z,62.1
2018-04-23T08:31:31.991Z,63.1
2018-04-23T08:32:33.436Z,63.7
2018-04-23T08:33:34.906Z,63.2
2018-04-23T08:34:36.376Z,62.2
2018-04-23T08:35:37.864Z,60.9
2018-04-23T08:36:39.348Z,60.1
2018-04-23T08:37:40.838Z,60.7
2018-04-23T08:38:42.275Z,61.9
2018-04-23T08:39:43.707Z,61.3
2018-04-23T08:40:45.147Z,60.9
2018-04-23T08:41:46.581Z,62.0
2018-04-23T08:42:48.025Z,63.3
2018-04-23T08:43:49.509Z,62.6
2018-04-23T08:44:50.883Z,61.3
2018-04-23T08:45:52.321Z,62.4
2018-04-23T08:46:53.759Z,63.3
2018-04-23T08:47:55.216Z,62.1
2018-04-23T08:48:56.684Z,60.2
2018-04-23T08:49:58.115Z,58.9
2018-04-23T08:50:59.577Z,58.9
2018-04-23T08:52:01.082Z,59.0
2018-04-23T08:53:02.519Z,56.1
2018-04-23T08:54:03.972Z,55.5
2018-04-23T08:55:05.461Z,54.7
2018-04-23T08:56:06.965Z,55.5
2018-04-23T08:57:08.417Z,54.3
2018-04-23T08:58:09.996Z,57.4
2018-04-23T08:59:11.438Z,56.5
2018-04-23T09:00:12.953Z,56.2
2018-04-23T09:01:14.425Z,55.3
2018-04-23T09:02:15.882Z,56.6
2018-04-23T09:03:17.415Z,56.2
2018-04-23T09:04:18.929Z,55.4
2018-04-23T09:05:20.417Z,54.2
2018-04-23T09:06:21.927Z,54.0
2018-04-23T09:07:23.378Z,55.1
2018-04-23T09:08:24.890Z,53.2
2018-04-23T09:09:26.347Z,52.4
2018-04-23T09:10:27.846Z,51.2
2018-04-23T09:11:29.295Z,51.3
2018-04-23T09:12:30.711Z,52.2
2018-04-23T09:13:32.183Z,53.1
2018-04-23T09:14:33.629Z,51.1
2018-04-23T09:15:35.126Z,52.1
2018-04-23T09:16:36.566Z,52.4
2018-04-23T09:17:37.989Z,51.4
2018-04-23T09:18:39.454Z,51.2
2018-04-23T09:19:40.920Z,50.5
2018-04-23T09:20:42.323Z,51.1
2018-04-23T09:21:43.772Z,50.5
2018-04-23T09:22:45.212Z,50.9
2018-04-23T09:23:46.630Z,50.4
2018-04-23T09:24:48.142Z,51.3
2018-04-23T09:25:49.532Z,46.7
2018-04-23T09:26:50.962Z,46.2
2018-04-23T09:27:52.416Z,47.2
2018-04-23T09:28:53.840Z,46.9
2018-04-23T09:29:55.303Z,46.8
2018-04-23T09:30:56.756Z,49.2
2018-04-23T09:31:58.199Z,50.7
2018-04-23T09:32:59.635Z,49.0
2018-04-23T09:34:01.104Z,48.8
2018-04-23T09:35:02.561Z,49.3
2018-04-23T09:36:04.017Z,48.3
2018-04-23T09:37:05.458Z,48.3
2018-04-23T09:38:06.917Z,43.1
2018-04-23T09:39:08.386Z,46.8
2018-04-23T09:40:09.865Z,47.7
2018-04-23T09:41:11.334Z,48.2
2018-04-23T09:42:12.771Z,50.6
2018-04-23T09:43:14.239Z,51.5
2018-04-23T09:44:15.698Z,50.3
2018-04-23T09:45:17.168Z,51.4
2018-04-23T09:46:18.598Z,50.0
2018-04-23T09:47:20.042Z,50.4
2018-04-23T09:48:21.536Z,51.3
2018-04-23T09:49:23.007Z,51.6
2018-04-23T09:50:24.429Z,51.6
2018-04-23T09:51:25.847Z,50.5
2018-04-23T09:52:27.333Z,50.6
2018-04-23T09:53:28.823Z,51.3
2018-04-23T09:54:30.249Z,49.1
2018-04-23T09:55:31.678Z,50.3
2018-04-23T09:56:33.110Z,51.6
2018-04-23T09:57:34.542Z,50.4
2018-04-23T09:58:36.046Z,49.6
2018-04-23T09:59:37.533Z,51.1
2018-04-23T10:00:39.063Z,51.5
2018-04-23T10:01:40.506Z,49.6
2018-04-23T10:02:41.988Z,52.2
2018-04-23T10:03:43.498Z,53.5
2018-04-23T10:04:44.952Z,53.6
2018-04-23T10:05:46.386Z,53.3
2018-04-23T10:06:47.948Z,52.2
2018-04-23T10:07:49.693Z,51.6
2018-04-23T10:08:51.174Z,51.6
2018-04-23T10:09:52.765Z,52.1
2018-04-23T10:10:54.237Z,53.6
2018-04-23T10:11:55.676Z,54.5
2018-04-23T10:12:57.121Z,56.1
2018-04-23T10:13:58.597Z,56.3
2018-04-23T10:15:00.055Z,54.1
2018-04-23T10:16:01.518Z,54.6
2018-04-23T10:17:02.939Z,55.3
2018-04-23T10:18:04.409Z,55.3
2018-04-23T10:19:05.866Z,53.6
2018-04-23T10:20:07.363Z,54.5
2018-04-23T10:21:08.816Z,55.0
2018-04-23T10:22:10.332Z,56.3
2018-04-23T10:23:11.829Z,55.0
2018-04-23T10:24:13.315Z,54.8
2018-04-23T10:25:14.794Z,53.8
2018-04-23T10:26:16.298Z,54.2
2018-04-23T10:27:17.775Z,54.8
2018-04-23T10:28:19.257Z,54.1
2018-04-23T10:29:20.722Z,53.5
2018-04-23T10:30:22.202Z,50.8
2018-04-23T10:31:23.721Z,50.2
2018-04-23T10:32:25.118Z,50.2
2018-04-23T10:33:26.614Z,49.4
2018-04-23T10:34:28.107Z,48.3
2018-04-23T10:35:29.599Z,49.2
2018-04-23T10:36:31.086Z,46.6
2018-04-23T10:37:32.537Z,46.0
2018-04-23T10:38:33.996Z,44.5
2018-04-23T10:39:35.493Z,43.3
2018-04-23T10:40:37.038Z,42.7
2018-04-23T10:41:38.495Z,43.0
2018-04-23T10:42:40.000Z,44.4
2018-04-23T10:43:41.473Z,46.3
2018-04-23T10:44:42.914Z,46.1
2018-04-23T10:45:44.448Z,45.7
2018-04-23T10:46:45.857Z,47.1
2018-04-23T10:47:47.413Z,45.7
2018-04-23T10:48:48.882Z,45.9
2018-04-23T10:49:50.338Z,45.2
2018-04-23T10:50:51.852Z,44.9
2018-04-23T10:51:53.359Z,46.1
2018-04-23T10:52:54.857Z,48.2
2018-04-23T10:53:56.284Z,49.1
2018-04-23T10:54:57.823Z,47.6
2018-04-23T10:55:59.281Z,50.0
2018-04-23T10:57:00.835Z,48.4
2018-04-23T10:58:02.299Z,49.3
2018-04-23T10:59:03.768Z,50.4
2018-04-23T11:00:05.253Z,50.4
2018-04-23T11:01:06.757Z,50.1
2018-04-23T11:02:08.265Z,50.4
2018-04-23T11:03:09.907Z,49.3
2018-04-23T11:04:11.553Z,50.6
2018-04-23T11:05:13.347Z,50.6
2018-04-23T11:06:15.024Z,50.9
2018-04-23T11:07:16.860Z,51.7
2018-04-23T11:08:18.350Z,53.1
2018-04-23T11:09:19.847Z,50.7
2018-04-23T11:10:21.378Z,51.0
2018-04-23T11:11:22.890Z,52.7
2018-04-23T11:12:24.360Z,53.4
2018-04-23T11:13:25.898Z,51.2
2018-04-23T11:14:27.361Z,50.8
2018-04-23T11:15:28.845Z,51.0
2018-04-23T11:16:30.291Z,51.7
2018-04-23T11:17:31.937Z,51.6
2018-04-23T11:18:33.497Z,52.1
2018-04-23T11:19:35.066Z,52.5
2018-04-23T11:20:36.596Z,50.2
2018-04-23T11:21:38.271Z,49.2
2018-04-23T11:22:39.989Z,47.6
2018-04-23T11:23:41.700Z,46.9
2018-04-23T11:24:43.612Z,48.5
2018-04-23T11:25:45.341Z,48.5
2018-04-23T11:26:46.899Z,48.2
2018-04-23T11:27:48.426Z,47.0
2018-04-23T11:28:49.981Z,44.2
2018-04-23T11:29:51.656Z,42.9
2018-04-23T11:30:53.178Z,43.2
2018-04-23T11:31:54.683Z,44.3
2018-04-23T11:32:56.359Z,44.2
2018-04-23T11:33:58.081Z,45.5
2018-04-23T11:34:59.767Z,44.8
2018-04-23T11:36:01.290Z,41.2
2018-04-23T11:37:02.831Z,39.6
2018-04-23T11:38:04.317Z,40.8
2018-04-23T11:39:06.007Z,39.3
2018-04-23T11:40:07.609Z,41.4
2018-04-23T11:41:09.356Z,40.5
2018-04-23T11:42:11.077Z,41.6
2018-04-23T11:43:12.739Z,42.1
2018-04-23T11:44:14.241Z,42.3
2018-04-23T11:45:15.741Z,41.5
2018-04-23T11:46:17.348Z,40.2
2018-04-23T11:47:19.088Z,36.8
2018-04-23T11:48:20.862Z,36.8
2018-04-23T11:49:22.519Z,35.4
2018-04-23T11:50:24.168Z,35.5
2018-04-23T11:51:25.687Z,36.5
2018-04-23T11:52:27.155Z,37.4
2018-04-23T11:53:28.662Z,37.0
2018-04-23T11:54:30.185Z,37.2
2018-04-23T11:55:31.688Z,38.7
2018-04-23T11:56:33.422Z,38.2
2018-04-23T11:57:35.154Z,37.5
2018-04-23T11:58:36.857Z,37.7
2018-04-23T11:59:38.523Z,40.7
2018-04-23T12:00:40.277Z,42.5
2018-04-23T12:01:42.015Z,41.8
2018-04-23T12:02:43.510Z,41.1
2018-04-23T12:03:44.966Z,41.1
2018-04-23T12:04:46.436Z,42.5
2018-04-23T12:05:47.971Z,43.1
2018-04-23T12:06:49.476Z,42.7
2018-04-23T12:07:51.000Z,41.9
2018-04-23T12:08:52.604Z,40.3
2018-04-23T12:09:54.054Z,41.6
2018-04-23T12:10:55.560Z,41.4
2018-04-23T12:11:57.056Z,41.1
2018-04-23T12:12:58.685Z,39.9
2018-04-23T12:14:00.114Z,40.2
2018-04-23T12:15:01.583Z,41.4
2018-04-23T12:16:03.161Z,40.3
2018-04-23T12:17:04.644Z,40.7
2018-04-23T12:18:06.308Z,39.3
2018-04-23T12:19:07.995Z,39.0
2018-04-23T12:20:09.479Z,39.1
2018-04-23T12:21:10.914Z,38.5
2018-04-23T12:22:12.470Z,37.4
2018-04-23T12:23:14.166Z,36.4
2018-04-23T12:24:15.859Z,35.9
2018-04-23T12:25:17.664Z,36.8
2018-04-23T12:26:19.108Z,36.0
2018-04-23T12:27:20.582Z,36.9
2018-04-23T12:28:22.091Z,37.6
2018-04-23T12:29:23.565Z,38.5
2018-04-23T12:30:25.034Z,38.2
2018-04-23T12:31:26.479Z,37.8
2018-04-23T12:32:27.965Z,36.0
2018-04-23T12:33:29.438Z,37.8
2018-04-23T12:34:30.890Z,38.3
2018-04-23T12:35:32.410Z,38.1
2018-04-23T12:36:33.848Z,38.7
2018-04-23T12:37:35.364Z,38.4
2018-04-23T12:38:36.852Z,36.4
2018-04-23T12:39:38.338Z,37.5
2018-04-23T12:40:39.777Z,36.7
2018-04-23T12:41:41.211Z,35.9
2018-04-23T12:42:42.685Z,35.1
2018-04-23T12:43:44.139Z,36.5
2018-04-23T12:44:45.647Z,38.5
2018-04-23T12:45:47.137Z,36.7
2018-04-23T12:46:48.625Z,35.4
2018-04-23T12:47:50.099Z,36.5
2018-04-23T12:48:51.564Z,36.6
2018-04-23T12:49:53.077Z,38.0
2018-04-23T12:50:54.544Z,37.4
2018-04-23T12:51:56.003Z,36.0
2018-04-23T12:52:57.488Z,32.4
2018-04-23T12:53:58.893Z,30.7
2018-04-23T12:55:00.539Z,29.1
2018-04-23T12:56:02.218Z,30.7
2018-04-23T12:57:03.740Z,30.4
2018-04-23T12:58:05.234Z,30.3
2018-04-23T12:59:06.656Z,30.7
2018-04-23T13:00:08.106Z,31.3
2018-04-23T13:01:09.584Z,32.2
2018-04-23T13:02:11.064Z,32.4
2018-04-23T13:03:12.511Z,33.4
2018-04-23T13:04:13.953Z,34.3
2018-04-23T13:05:15.398Z,35.0
2018-04-23T13:06:16.852Z,32.7
2018-04-23T13:07:18.324Z,32.6
2018-04-23T13:08:19.920Z,33.8
2018-04-23T13:09:21.635Z,35.4
2018-04-23T13:10:23.269Z,35.5
2018-04-23T13:11:24.831Z,34.5
2018-04-23T13:12:26.267Z,32.7
2018-04-23T13:13:27.718Z,32.7
2018-04-23T13:14:29.213Z,33.1
2018-04-23T13:15:30.737Z,32.4
2018-04-23T13:16:32.154Z,30.6
2018-04-23T13:17:33.595Z,32.7
2018-04-23T13:18:35.091Z,32.9
2018-04-23T13:19:36.535Z,31.1
2018-04-23T13:20:38.273Z,32.1
2018-04-23T13:21:39.762Z,33.2
2018-04-23T13:22:41.540Z,31.5
2018-04-23T13:23:43.264Z,33.4
2018-04-23T13:24:44.780Z,34.5
2018-04-23T13:25:46.241Z,34.5
2018-04-23T13:26:47.761Z,33.5
2018-04-23T13:27:49.260Z,33.8
2018-04-23T13:28:50.772Z,32.1
2018-04-23T13:29:52.288Z,33.0
2018-04-23T13:30:53.953Z,33.3
2018-04-23T13:31:55.594Z,32.9
2018-04-23T13:32:57.343Z,33.4